createdAt,value
2022-10-18T00:00:02.982Z,93.42
2022-10-18T00:03:05.639Z,93.48
2022-10-18T00:06:10.108Z,93.53
2022-10-18T00:09:12.921Z,93.48
2022-10-18T00:12:16.889Z,94.11
2022-10-18T00:15:19.779Z,94.62
2022-10-18T00:18:23.077Z,94.47
2022-10-18T00:21:26.772Z,94.36
2022-10-18T00:24:29.471Z,94.41
2022-10-18T00:27:33.793Z,94.47
2022-10-18T00:30:36.455Z,94.66
2022-10-18T00:33:39.603Z,94.56
2022-10-18T00:36:43.069Z,94.62
2022-10-18T00:39:45.748Z,94.68
2022-10-18T00:42:49.766Z,94.73
2022-10-18T00:45:52.409Z,94.94
2022-10-18T00:48:57.234Z,94.48
2022-10-18T00:52:07.682Z,93.93
2022-10-18T00:55:11.191Z,93.52
2022-10-18T00:58:15.564Z,93.16
2022-10-18T01:01:18.825Z,92.46
2022-10-18T01:04:22.208Z,92.33
2022-10-18T01:07:35.192Z,92.34
2022-10-18T01:10:44.089Z,91.83
2022-10-18T01:14:02.330Z,91.85
2022-10-18T01:17:09.222Z,91.48
2022-10-18T01:20:32.267Z,91.26
2022-10-18T01:23:58.809Z,90.68
2022-10-18T01:27:36.160Z,90.47
2022-10-18T01:30:47.981Z,89.95
2022-10-18T01:33:53.548Z,89.39
2022-10-18T01:36:57.743Z,88.31
2022-10-18T01:40:00.876Z,88.00
2022-10-18T01:43:04.165Z,88.14
2022-10-18T01:46:09.473Z,88.14
2022-10-18T01:49:12.109Z,88.18
2022-10-18T01:52:15.590Z,87.80
2022-10-18T01:55:18.366Z,88.06
2022-10-18T01:58:26.635Z,87.69
2022-10-18T02:01:36.300Z,87.61
2022-10-18T02:04:45.530Z,87.81
2022-10-18T02:08:00.339Z,87.92
2022-10-18T02:11:17.642Z,88.23
2022-10-18T02:14:21.479Z,88.08
2022-10-18T02:17:27.175Z,87.59
2022-10-18T02:20:32.372Z,87.82
2022-10-18T02:23:35.330Z,87.33
2022-10-18T02:26:38.139Z,87.05
2022-10-18T02:29:42.337Z,86.90
2022-10-18T02:32:50.935Z,86.56
2022-10-18T02:35:59.870Z,87.05
2022-10-18T02:39:06.251Z,86.88
2022-10-18T02:42:11.690Z,86.70
2022-10-18T02:45:14.834Z,86.75
2022-10-18T02:48:19.034Z,86.76
2022-10-18T02:51:21.719Z,86.93
2022-10-18T02:54:24.820Z,86.84
2022-10-18T02:57:27.701Z,86.82
2022-10-18T03:00:30.382Z,86.51
2022-10-18T03:03:34.275Z,86.36
2022-10-18T03:06:36.941Z,86.39
2022-10-18T03:09:39.577Z,86.42
2022-10-18T03:12:42.247Z,86.57
2022-10-18T03:15:44.983Z,86.36
2022-10-18T03:18:49.017Z,86.35
2022-10-18T03:21:51.671Z,86.42
2022-10-18T03:24:54.544Z,86.24
2022-10-18T03:27:57.210Z,86.56
2022-10-18T03:31:02.073Z,86.74
2022-10-18T03:34:06.068Z,86.73
2022-10-18T03:37:08.738Z,86.63
2022-10-18T03:40:12.117Z,86.89
2022-10-18T03:43:14.848Z,87.10
2022-10-18T03:46:17.503Z,86.73
2022-10-18T03:49:21.555Z,86.94
2022-10-18T03:52:24.190Z,86.93
2022-10-18T03:55:26.825Z,85.87
2022-10-18T03:58:29.622Z,86.65
2022-10-18T04:01:32.548Z,87.54
2022-10-18T04:04:36.665Z,88.05
2022-10-18T04:07:39.505Z,88.72
2022-10-18T04:10:42.743Z,89.39
2022-10-18T04:13:45.296Z,89.71
2022-10-18T04:16:48.040Z,90.69
2022-10-18T04:19:52.023Z,91.30
2022-10-18T04:22:57.539Z,91.24
2022-10-18T04:26:00.190Z,91.34
2022-10-18T04:29:02.916Z,91.37
2022-10-18T04:32:05.930Z,90.81
2022-10-18T04:35:11.485Z,90.22
2022-10-18T04:38:14.884Z,90.12
2022-10-18T04:41:17.518Z,89.77
2022-10-18T04:44:20.251Z,90.13
2022-10-18T04:47:23.092Z,89.83
2022-10-18T04:50:27.083Z,89.42
2022-10-18T04:53:29.872Z,86.77
2022-10-18T04:56:32.708Z,82.51
2022-10-18T04:59:35.363Z,75.70
2022-10-18T05:02:38.159Z,72.39
2022-10-18T05:06:00.937Z,72.08
2022-10-18T05:09:05.106Z,73.81
2022-10-18T05:12:07.835Z,75.93
2022-10-18T05:15:11.511Z,76.21
2022-10-18T05:18:14.292Z,77.44
2022-10-18T05:21:18.494Z,78.04
2022-10-18T05:24:23.038Z,79.19
2022-10-18T05:27:29.274Z,79.58
2022-10-18T05:30:32.015Z,80.25
2022-10-18T05:33:35.098Z,81.11
2022-10-18T05:36:39.222Z,81.88
2022-10-18T05:39:41.856Z,82.50
2022-10-18T05:42:44.824Z,82.38
2022-10-18T05:45:50.751Z,82.83
2022-10-18T05:48:53.360Z,82.65
2022-10-18T05:51:57.455Z,82.09
2022-10-18T05:55:00.128Z,81.23
2022-10-18T05:58:02.831Z,81.24
2022-10-18T06:01:06.724Z,81.08
2022-10-18T06:04:10.186Z,81.20
2022-10-18T06:07:14.038Z,81.53
2022-10-18T06:10:16.762Z,81.67
2022-10-18T06:13:19.376Z,81.22
2022-10-18T06:16:24.815Z,81.42
2022-10-18T06:19:29.958Z,80.92
2022-10-18T06:22:33.985Z,78.72
2022-10-18T06:25:36.622Z,75.50
2022-10-18T06:28:39.608Z,72.29
2022-10-18T06:31:42.313Z,69.34
2022-10-18T06:34:44.939Z,66.57
2022-10-18T06:37:48.994Z,64.16
2022-10-18T06:40:51.690Z,62.78
2022-10-18T06:43:57.360Z,61.83
2022-10-18T06:47:00.052Z,61.51
2022-10-18T06:50:02.826Z,61.32
2022-10-18T06:53:08.704Z,60.99
2022-10-18T06:56:13.035Z,60.80
2022-10-18T06:59:16.002Z,60.45
2022-10-18T07:02:18.661Z,60.25
2022-10-18T07:05:21.452Z,59.98
2022-10-18T07:08:25.632Z,59.85
2022-10-18T07:11:28.301Z,59.47
2022-10-18T07:14:31.126Z,59.26
2022-10-18T07:17:34.069Z,59.04
2022-10-18T07:20:36.947Z,58.87
2022-10-18T07:23:42.764Z,58.56
2022-10-18T07:26:45.361Z,58.24
2022-10-18T07:29:48.719Z,58.31
2022-10-18T07:32:52.480Z,58.22
2022-10-18T07:35:55.049Z,57.59
2022-10-18T07:38:59.616Z,57.03
2022-10-18T07:42:02.254Z,56.30
2022-10-18T07:45:05.345Z,56.83
2022-10-18T07:48:08.056Z,55.63
2022-10-18T07:51:11.017Z,55.46
2022-10-18T07:54:14.967Z,54.85
2022-10-18T07:57:17.589Z,54.45
2022-10-18T08:00:20.512Z,53.42
2022-10-18T08:03:23.155Z,53.34
2022-10-18T08:06:25.899Z,53.36
2022-10-18T08:09:30.018Z,52.13
2022-10-18T08:12:32.700Z,52.04
2022-10-18T08:15:35.297Z,52.87
2022-10-18T08:18:39.043Z,54.17
2022-10-18T08:21:42.062Z,54.79
2022-10-18T08:24:46.192Z,55.22
2022-10-18T08:27:49.136Z,55.33
2022-10-18T08:30:51.791Z,55.00
2022-10-18T08:33:56.115Z,54.44
2022-10-18T08:36:58.840Z,54.27
2022-10-18T08:40:02.881Z,53.72
2022-10-18T08:43:08.477Z,53.27
2022-10-18T08:46:13.354Z,53.50
2022-10-18T08:49:24.181Z,53.42
2022-10-18T08:52:33.228Z,53.02
2022-10-18T08:55:40.145Z,53.31
2022-10-18T08:58:44.918Z,52.88
2022-10-18T09:01:58.258Z,52.70
2022-10-18T09:05:03.073Z,53.17
2022-10-18T09:08:35.014Z,53.69
2022-10-18T09:11:48.196Z,53.72
2022-10-18T09:15:16.408Z,53.99
2022-10-18T09:18:32.980Z,53.39
2022-10-18T09:21:43.260Z,53.05
2022-10-18T09:24:49.566Z,52.42
2022-10-18T09:27:56.210Z,51.18
2022-10-18T09:31:03.549Z,49.57
2022-10-18T09:34:10.435Z,47.61
2022-10-18T09:37:14.929Z,45.56
2022-10-18T09:40:20.799Z,46.34
2022-10-18T09:43:27.152Z,49.71
2022-10-18T09:46:33.682Z,53.00
2022-10-18T09:49:40.262Z,54.13
2022-10-18T09:52:47.216Z,53.16
2022-10-18T09:55:57.877Z,53.23
2022-10-18T09:59:02.030Z,54.17
2022-10-18T10:02:05.200Z,54.61
2022-10-18T10:08:18.126Z,52.30
2022-10-18T10:11:29.628Z,52.03
2022-10-18T10:14:44.186Z,52.91
2022-10-18T10:17:55.126Z,53.31
2022-10-18T10:21:00.205Z,54.66
2022-10-18T10:24:04.512Z,55.11
2022-10-18T10:27:08.545Z,55.37
2022-10-18T10:30:25.930Z,54.81
2022-10-18T10:33:34.686Z,55.51
2022-10-18T10:36:47.672Z,55.20
2022-10-18T10:40:17.786Z,54.53
2022-10-18T10:43:36.927Z,54.38
2022-10-18T10:46:41.564Z,53.18
2022-10-18T10:49:47.280Z,52.33
2022-10-18T10:52:50.035Z,51.55
2022-10-18T10:55:54.845Z,50.70
2022-10-18T10:59:03.049Z,50.55
2022-10-18T11:02:23.819Z,50.26
2022-10-18T11:05:29.295Z,49.75
2022-10-18T11:08:36.562Z,50.39
2022-10-18T11:11:42.513Z,50.35
2022-10-18T11:14:48.286Z,50.32
2022-10-18T11:18:03.999Z,50.97
2022-10-18T11:21:10.880Z,51.24
2022-10-18T11:24:16.718Z,51.41
2022-10-18T11:27:24.749Z,50.22
2022-10-18T11:30:38.113Z,48.76
2022-10-18T11:34:09.932Z,48.13
2022-10-18T11:37:30.343Z,46.56
2022-10-18T11:40:48.345Z,45.04
2022-10-18T11:44:03.055Z,43.95
2022-10-18T11:47:13.185Z,43.48
2022-10-18T11:50:26.224Z,42.66
2022-10-18T11:53:30.020Z,42.42
2022-10-18T11:56:37.943Z,43.82
2022-10-18T11:59:46.907Z,43.29
2022-10-18T12:02:58.555Z,43.44
2022-10-18T12:06:06.465Z,42.64
2022-10-18T12:09:17.483Z,42.26
2022-10-18T12:12:24.184Z,43.42
2022-10-18T12:15:28.535Z,43.90
2022-10-18T12:18:31.633Z,42.20
2022-10-18T12:21:35.690Z,40.74
2022-10-18T12:24:38.727Z,39.73
2022-10-18T12:27:45.308Z,43.32
2022-10-18T12:30:52.667Z,46.55
2022-10-18T12:33:59.082Z,47.93
2022-10-18T12:37:27.737Z,48.72
2022-10-18T12:40:35.606Z,48.49
2022-10-18T12:43:38.243Z,44.27
2022-10-18T12:46:45.099Z,36.23
2022-10-18T12:49:57.155Z,38.29
2022-10-18T12:53:06.576Z,42.27
2022-10-18T12:56:37.573Z,34.36
2022-10-18T12:59:43.001Z,37.17
2022-10-18T13:02:45.745Z,40.90
2022-10-18T13:05:56.701Z,45.23
2022-10-18T13:09:20.752Z,44.26
2022-10-18T13:12:48.273Z,34.84
2022-10-18T13:15:55.048Z,27.17
2022-10-18T13:19:00.483Z,28.29
2022-10-18T13:22:18.945Z,25.98
2022-10-18T13:25:27.366Z,27.63
2022-10-18T13:28:35.650Z,26.78
2022-10-18T13:31:42.886Z,31.34
2022-10-18T13:34:45.632Z,38.05
2022-10-18T13:37:58.997Z,38.34
2022-10-18T13:41:03.942Z,32.27
2022-10-18T13:44:25.750Z,25.25
2022-10-18T13:47:35.752Z,20.63
2022-10-18T13:50:39.289Z,21.15
2022-10-18T13:53:48.205Z,26.84
2022-10-18T13:57:03.177Z,24.86
2022-10-18T14:00:23.032Z,33.27
2022-10-18T14:03:57.685Z,34.67
2022-10-18T14:07:03.402Z,27.62
2022-10-18T14:10:11.350Z,21.12
2022-10-18T14:13:20.834Z,20.42
2022-10-18T14:16:35.970Z,26.06
2022-10-18T14:19:42.027Z,37.27
2022-10-18T14:22:47.593Z,44.24
2022-10-18T14:25:50.507Z,47.67
2022-10-18T14:29:05.055Z,49.11
2022-10-18T14:32:10.625Z,53.56
2022-10-18T14:35:37.117Z,54.34
2022-10-18T14:38:46.767Z,55.02
2022-10-18T14:41:51.565Z,55.69
2022-10-18T14:44:56.658Z,55.36
2022-10-18T14:48:15.268Z,56.87
2022-10-18T14:51:18.079Z,56.08
2022-10-18T14:54:27.637Z,54.85
2022-10-18T14:57:37.152Z,43.17
2022-10-18T15:00:43.887Z,41.53
2022-10-18T15:03:49.489Z,38.93
2022-10-18T15:06:52.193Z,42.28
2022-10-18T15:09:54.959Z,44.96
2022-10-18T15:13:16.099Z,47.53
2022-10-18T15:16:21.943Z,51.80
2022-10-18T15:19:29.997Z,54.52
2022-10-18T15:22:33.735Z,54.30
2022-10-18T15:25:36.490Z,55.88
2022-10-18T15:28:49.524Z,56.41
2022-10-18T15:31:53.793Z,58.02
2022-10-18T15:34:57.190Z,59.96
2022-10-18T15:38:02.508Z,60.75
2022-10-18T15:41:39.510Z,62.03
2022-10-18T15:44:49.308Z,61.71
2022-10-18T15:48:05.125Z,61.22
2022-10-18T15:51:09.005Z,60.80
2022-10-18T15:54:18.356Z,61.52
2022-10-18T15:57:21.129Z,61.11
2022-10-18T16:00:23.718Z,61.25
2022-10-18T16:03:28.423Z,61.47
2022-10-18T16:06:32.375Z,62.04
2022-10-18T16:09:35.264Z,62.70
2022-10-18T16:12:38.178Z,62.50
2022-10-18T16:15:41.148Z,62.90
2022-10-18T16:18:45.329Z,63.42
2022-10-18T16:21:48.040Z,63.66
2022-10-18T16:24:52.566Z,63.66
2022-10-18T16:27:55.223Z,64.11
2022-10-18T16:30:59.824Z,64.76
2022-10-18T16:34:04.164Z,64.87
2022-10-18T16:37:06.967Z,65.26
2022-10-18T16:40:22.906Z,65.36
2022-10-18T16:43:25.946Z,65.33
2022-10-18T16:46:30.111Z,65.32
2022-10-18T16:49:34.249Z,65.59
2022-10-18T16:52:37.363Z,65.61
2022-10-18T16:55:41.485Z,65.78
2022-10-18T16:58:44.627Z,66.15
2022-10-18T17:01:47.566Z,66.47
2022-10-18T17:04:51.663Z,65.94
2022-10-18T17:07:54.401Z,66.32
2022-10-18T17:10:58.562Z,66.45
2022-10-18T17:14:01.246Z,66.79
2022-10-18T17:17:03.952Z,66.78
2022-10-18T17:20:09.642Z,66.51
2022-10-18T17:23:12.569Z,66.77
2022-10-18T17:26:28.359Z,66.97
2022-10-18T17:29:32.162Z,67.65
2022-10-18T17:32:34.850Z,68.01
2022-10-18T17:35:39.646Z,68.45
2022-10-18T17:38:42.495Z,68.69
2022-10-18T17:41:45.318Z,68.10
2022-10-18T17:44:48.248Z,69.04
2022-10-18T17:47:51.273Z,69.80
2022-10-18T17:50:55.516Z,70.24
2022-10-18T17:53:58.191Z,69.84
2022-10-18T17:57:00.958Z,69.68
2022-10-18T18:00:05.926Z,69.82
2022-10-18T18:03:08.739Z,70.12
2022-10-18T18:06:17.965Z,70.51
2022-10-18T18:09:21.200Z,71.47
2022-10-18T18:12:24.180Z,71.90
2022-10-18T18:15:27.075Z,73.00
2022-10-18T18:18:29.922Z,73.95
2022-10-18T18:21:34.438Z,74.70
2022-10-18T18:24:37.420Z,75.71
2022-10-18T18:27:40.232Z,76.51
2022-10-18T18:30:43.130Z,77.15
2022-10-18T18:33:46.321Z,77.27
2022-10-18T18:36:51.934Z,77.80
2022-10-18T18:39:54.587Z,77.26
2022-10-18T18:43:12.083Z,77.97
2022-10-18T18:46:21.775Z,78.88
2022-10-18T18:49:24.589Z,79.34
2022-10-18T18:52:28.807Z,80.28
2022-10-18T18:55:33.823Z,80.42
2022-10-18T18:58:38.133Z,80.83
2022-10-18T19:01:41.420Z,81.17
2022-10-18T19:04:44.372Z,82.01
2022-10-18T19:07:48.569Z,82.25
2022-10-18T19:10:51.352Z,82.91
2022-10-18T19:13:54.363Z,83.66
2022-10-18T19:16:59.000Z,83.70
2022-10-18T19:20:02.408Z,83.78
2022-10-18T19:23:06.467Z,84.28
2022-10-18T19:26:12.836Z,84.86
2022-10-18T19:29:16.953Z,85.04
2022-10-18T19:32:19.847Z,85.36
2022-10-18T19:35:22.950Z,86.07
2022-10-18T19:38:27.149Z,86.22
2022-10-18T19:41:30.096Z,86.41
2022-10-18T19:44:33.975Z,86.56
2022-10-18T19:47:38.551Z,87.17
2022-10-18T19:50:41.341Z,87.35
2022-10-18T19:53:45.573Z,87.92
2022-10-18T19:56:48.545Z,87.97
2022-10-18T19:59:51.237Z,87.74
2022-10-18T20:02:53.988Z,88.06
2022-10-18T20:05:57.830Z,88.36
2022-10-18T20:09:01.991Z,88.77
2022-10-18T20:12:05.183Z,88.12
2022-10-18T20:15:09.406Z,88.32
2022-10-18T20:18:12.187Z,88.24
2022-10-18T20:21:18.028Z,88.75
2022-10-18T20:24:22.163Z,88.74
2022-10-18T20:27:27.408Z,88.86
2022-10-18T20:30:30.410Z,89.22
2022-10-18T20:33:34.004Z,89.81
2022-10-18T20:36:37.150Z,89.25
2022-10-18T20:39:41.835Z,89.39
2022-10-18T20:42:44.549Z,90.01
2022-10-18T20:45:47.300Z,90.27
2022-10-18T20:48:50.653Z,90.32
2022-10-18T20:51:53.326Z,90.42
2022-10-18T20:54:57.512Z,90.86
2022-10-18T20:58:00.224Z,91.66
2022-10-18T21:01:07.862Z,92.13
2022-10-18T21:04:11.497Z,91.94
2022-10-18T21:07:14.277Z,91.73
2022-10-18T21:10:18.525Z,91.86
2022-10-18T21:13:21.379Z,92.53
2022-10-18T21:16:24.296Z,92.62
2022-10-18T21:19:28.174Z,93.43
2022-10-18T21:22:31.290Z,93.90
2022-10-18T21:25:35.727Z,94.33
2022-10-18T21:28:38.606Z,94.44
2022-10-18T21:31:43.338Z,94.50
2022-10-18T21:34:46.059Z,94.63
2022-10-18T21:37:48.783Z,94.53
2022-10-18T21:40:52.814Z,94.71
2022-10-18T21:43:56.638Z,94.96
2022-10-18T21:46:59.251Z,95.01
2022-10-18T21:50:01.965Z,95.04
2022-10-18T21:53:04.586Z,95.40
2022-10-18T21:56:10.696Z,95.10
2022-10-18T21:59:13.895Z,94.63
2022-10-18T22:02:16.619Z,95.01
2022-10-18T22:05:19.818Z,95.34
2022-10-18T22:08:22.958Z,95.34
2022-10-18T22:11:29.125Z,95.31
2022-10-18T22:14:31.775Z,95.38
2022-10-18T22:17:34.676Z,95.37
2022-10-18T22:20:37.644Z,95.53
2022-10-18T22:23:42.335Z,95.63
2022-10-18T22:26:47.112Z,95.04
2022-10-18T22:29:49.765Z,95.01
2022-10-18T22:32:52.486Z,95.28
2022-10-18T22:35:55.147Z,95.53
2022-10-18T22:38:57.863Z,95.63
2022-10-18T22:42:01.920Z,95.76
2022-10-18T22:45:05.103Z,95.85
2022-10-18T22:48:07.864Z,96.28
2022-10-18T22:51:11.129Z,97.08
2022-10-18T22:54:13.836Z,97.16
2022-10-18T22:57:17.809Z,96.75
2022-10-18T23:00:20.437Z,95.84
2022-10-18T23:03:23.196Z,94.93
2022-10-18T23:06:27.250Z,94.02
2022-10-18T23:09:29.913Z,93.38
2022-10-18T23:12:34.426Z,93.91
2022-10-18T23:15:39.037Z,93.80
2022-10-18T23:18:41.724Z,93.50
2022-10-18T23:21:44.365Z,93.51
2022-10-18T23:24:47.081Z,94.18
2022-10-18T23:27:51.145Z,94.75
2022-10-18T23:30:53.842Z,95.68
2022-10-18T23:33:58.321Z,96.33
2022-10-18T23:37:00.939Z,96.25
2022-10-18T23:40:03.592Z,96.29
2022-10-18T23:43:07.565Z,96.87
2022-10-18T23:46:10.270Z,97.01
2022-10-18T23:49:13.048Z,96.90
2022-10-18T23:52:15.752Z,96.76
2022-10-18T23:55:18.417Z,96.71
2022-10-18T23:58:22.601Z,96.98
